createdAt,value
2018-12-05T00:00:15.592Z,100760.20
2018-12-05T00:02:43.639Z,100755.08
2018-12-05T00:05:11.696Z,100752.09
2018-12-05T00:07:39.765Z,100749.48
2018-12-05T00:10:08.120Z,100749.77
2018-12-05T00:12:36.182Z,100737.82
2018-12-05T00:15:04.829Z,100735.05
2018-12-05T00:17:33.656Z,100738.52
2018-12-05T00:20:01.926Z,100728.48
2018-12-05T00:22:30.018Z,100734.33
2018-12-05T00:24:58.123Z,100737.37
2018-12-05T00:27:26.178Z,100741.98
2018-12-05T00:29:54.370Z,100740.88
2018-12-05T00:32:22.419Z,100736.41
2018-12-05T00:34:50.486Z,100737.10
2018-12-05T00:37:18.588Z,100741.20
2018-12-05T00:39:48.107Z,100739.03
2018-12-05T00:42:16.303Z,100744.13
2018-12-05T00:44:44.368Z,100739.89
2018-12-05T00:47:12.415Z,100741.47
2018-12-05T00:49:40.479Z,100736.09
2018-12-05T00:52:08.630Z,100733.58
2018-12-05T00:54:36.688Z,100736.95
2018-12-05T00:57:04.790Z,100740.02
2018-12-05T00:59:32.846Z,100733.39
2018-12-05T01:02:00.960Z,100735.75
2018-12-05T01:04:29.079Z,100732.71
2018-12-05T01:06:57.174Z,100731.00
2018-12-05T01:09:25.234Z,100722.06
2018-12-05T01:11:53.398Z,100725.52
2018-12-05T01:14:21.486Z,100726.72
2018-12-05T01:16:49.570Z,100729.13
2018-12-05T01:19:17.836Z,100723.64
2018-12-05T01:21:45.908Z,100719.05
2018-12-05T01:24:13.959Z,100723.94
2018-12-05T01:26:42.035Z,100717.03
2018-12-05T01:29:10.141Z,100722.27
2018-12-05T01:31:38.226Z,100718.30
2018-12-05T01:34:06.347Z,100718.92
2018-12-05T01:36:34.421Z,100726.30
2018-12-05T01:39:04.426Z,100729.39
2018-12-05T01:41:32.483Z,100732.84
2018-12-05T01:44:00.539Z,100734.72
2018-12-05T01:46:28.603Z,100725.26
2018-12-05T01:48:56.703Z,100726.52
2018-12-05T01:51:24.909Z,100730.70
2018-12-05T01:53:53.008Z,100728.77
2018-12-05T01:56:21.345Z,100721.08
2018-12-05T01:58:50.478Z,100715.22
2018-12-05T02:01:18.531Z,100712.40
2018-12-05T02:03:46.613Z,100715.22
2018-12-05T02:06:15.263Z,100714.91
2018-12-05T02:08:43.439Z,100711.16
2018-12-05T02:11:11.560Z,100705.98
2018-12-05T02:13:39.701Z,100703.67
2018-12-05T02:16:07.903Z,100696.30
2018-12-05T02:18:36.030Z,100693.36
2018-12-05T02:21:04.259Z,100692.72
2018-12-05T02:23:32.343Z,100687.59
2018-12-05T02:26:00.410Z,100692.45
2018-12-05T02:28:29.465Z,100695.95
2018-12-05T02:30:57.555Z,100699.72
2018-12-05T02:33:25.643Z,100692.87
2018-12-05T02:35:53.697Z,100686.79
2018-12-05T02:38:21.751Z,100682.35
2018-12-05T02:40:49.834Z,100685.35
2018-12-05T02:43:17.915Z,100677.41
2018-12-05T02:45:46.008Z,100675.80
2018-12-05T02:48:14.137Z,100669.96
2018-12-05T02:50:42.192Z,100669.19
2018-12-05T02:53:10.367Z,100660.77
2018-12-05T02:55:38.448Z,100660.33
2018-12-05T02:58:06.576Z,100657.09
2018-12-05T03:00:34.619Z,100654.63
2018-12-05T03:03:03.020Z,100658.95
2018-12-05T03:05:31.099Z,100661.36
2018-12-05T03:07:59.194Z,100662.65
2018-12-05T03:10:27.282Z,100660.10
2018-12-05T03:12:55.373Z,100656.45
2018-12-05T03:15:23.511Z,100656.78
2018-12-05T03:17:52.512Z,100653.92
2018-12-05T03:20:20.567Z,100649.48
2018-12-05T03:22:48.666Z,100653.30
2018-12-05T03:25:16.699Z,100652.98
2018-12-05T03:27:44.849Z,100657.40
2018-12-05T03:30:13.010Z,100655.61
2018-12-05T03:32:41.186Z,100656.03
2018-12-05T03:35:10.004Z,100652.47
2018-12-05T03:37:38.151Z,100658.48
2018-12-05T03:40:06.679Z,100647.47
2018-12-05T03:42:34.894Z,100648.36
2018-12-05T03:45:03.028Z,100652.88
2018-12-05T03:47:31.101Z,100643.05
2018-12-05T03:50:02.001Z,100648.98
2018-12-05T03:52:30.339Z,100652.55
2018-12-05T03:54:58.497Z,100647.84
2018-12-05T03:57:26.633Z,100643.47
2018-12-05T03:59:54.803Z,100647.19
2018-12-05T04:02:22.855Z,100642.65
2018-12-05T04:04:51.018Z,100645.80
2018-12-05T04:07:19.152Z,100648.05
2018-12-05T04:09:47.352Z,100650.95
2018-12-05T04:12:15.404Z,100656.54
2018-12-05T04:14:43.539Z,100656.34
2018-12-05T04:17:11.646Z,100655.50
2018-12-05T04:19:39.831Z,100659.27
2018-12-05T04:22:10.259Z,100659.67
2018-12-05T04:24:38.379Z,100658.32
2018-12-05T04:27:06.452Z,100657.13
2018-12-05T04:29:34.544Z,100662.45
2018-12-05T04:32:02.615Z,100671.63
2018-12-05T04:34:30.660Z,100672.93
2018-12-05T04:36:58.703Z,100675.59
2018-12-05T04:39:26.856Z,100674.78
2018-12-05T04:41:55.008Z,100664.96
2018-12-05T04:44:23.064Z,100665.66
2018-12-05T04:46:51.660Z,100656.34
2018-12-05T04:49:19.807Z,100660.46
2018-12-05T04:51:48.002Z,100660.36
2018-12-05T04:54:16.219Z,100657.31
2018-12-05T04:56:44.266Z,100659.52
2018-12-05T04:59:12.332Z,100656.95
2018-12-05T05:01:40.502Z,100658.73
2018-12-05T05:04:08.572Z,100655.22
2018-12-05T05:06:41.687Z,100645.88
2018-12-05T05:09:06.973Z,100641.62
2018-12-05T05:11:35.054Z,100648.98
2018-12-05T05:14:03.157Z,100644.77
2018-12-05T05:16:31.206Z,100639.70
2018-12-05T05:18:59.335Z,100643.97
2018-12-05T05:21:27.527Z,100640.87
2018-12-05T05:23:56.755Z,100630.56
2018-12-05T05:26:24.819Z,100634.16
2018-12-05T05:28:52.895Z,100639.03
2018-12-05T05:31:20.956Z,100635.62
2018-12-05T05:33:49.027Z,100636.78
2018-12-05T05:36:17.111Z,100634.92
2018-12-05T05:38:45.250Z,100619.98
2018-12-05T05:41:13.323Z,100615.82
2018-12-05T05:43:41.554Z,100617.00
2018-12-05T05:46:09.679Z,100616.83
2018-12-05T05:48:37.736Z,100617.21
2018-12-05T05:51:05.829Z,100621.78
2018-12-05T05:53:33.976Z,100624.23
2018-12-05T05:56:02.028Z,100626.85
2018-12-05T05:58:30.089Z,100623.73
2018-12-05T06:00:58.166Z,100625.23
2018-12-05T06:03:26.223Z,100625.34
2018-12-05T06:05:54.323Z,100621.20
2018-12-05T06:08:22.398Z,100615.46
2018-12-05T06:10:50.487Z,100611.91
2018-12-05T06:13:18.552Z,100609.56
2018-12-05T06:15:46.642Z,100606.98
2018-12-05T06:18:14.719Z,100609.77
2018-12-05T06:20:42.807Z,100609.63
2018-12-05T06:23:10.872Z,100615.59
2018-12-05T06:25:39.971Z,100612.22
2018-12-05T06:28:08.032Z,100613.27
2018-12-05T06:30:36.130Z,100613.58
2018-12-05T06:33:04.221Z,100616.05
2018-12-05T06:35:32.283Z,100602.69
2018-12-05T06:38:00.354Z,100609.34
2018-12-05T06:40:28.553Z,100606.35
2018-12-05T06:46:00.058Z,100617.67
2018-12-05T06:48:28.218Z,100617.92
2018-12-05T06:50:56.303Z,100611.46
2018-12-05T06:56:27.228Z,100619.69
2018-12-05T06:58:55.283Z,100613.30
2018-12-05T07:01:23.343Z,100609.83
2018-12-05T07:03:51.471Z,100618.02
2018-12-05T07:06:19.607Z,100615.39
2018-12-05T07:08:47.713Z,100621.96
2018-12-05T07:11:15.776Z,100613.75
2018-12-05T07:13:43.831Z,100612.19
2018-12-05T07:16:11.957Z,100611.84
2018-12-05T07:18:40.008Z,100609.61
2018-12-05T07:21:08.066Z,100608.09
2018-12-05T07:23:36.156Z,100604.70
2018-12-05T07:26:04.375Z,100609.06
2018-12-05T07:28:32.440Z,100614.98
2018-12-05T07:31:00.514Z,100617.12
2018-12-05T07:33:29.406Z,100622.78
2018-12-05T07:35:57.491Z,100621.21
2018-12-05T07:38:25.663Z,100622.14
2018-12-05T07:40:53.782Z,100627.34
2018-12-05T07:43:21.858Z,100623.85
2018-12-05T07:45:49.939Z,100622.97
2018-12-05T07:48:18.027Z,100620.86
2018-12-05T07:50:46.147Z,100616.31
2018-12-05T07:53:14.235Z,100609.63
2018-12-05T07:55:42.343Z,100604.02
2018-12-05T07:58:10.479Z,100600.83
2018-12-05T08:00:38.557Z,100598.37
2018-12-05T08:03:06.734Z,100594.48
2018-12-05T08:05:34.810Z,100588.78
2018-12-05T08:08:02.872Z,100585.64
2018-12-05T08:10:30.931Z,100577.53
2018-12-05T08:12:59.116Z,100574.66
2018-12-05T08:15:27.364Z,100576.06
2018-12-05T08:17:55.440Z,100571.81
2018-12-05T08:20:23.508Z,100569.17
2018-12-05T08:22:51.575Z,100573.70
2018-12-05T08:25:19.661Z,100569.77
2018-12-05T08:27:47.804Z,100563.19
2018-12-05T08:30:15.974Z,100556.56
2018-12-05T08:32:44.063Z,100551.23
2018-12-05T08:35:12.191Z,100556.89
2018-12-05T08:37:40.255Z,100555.77
2018-12-05T08:40:08.374Z,100564.21
2018-12-05T08:42:36.458Z,100562.18
2018-12-05T08:45:04.595Z,100560.30
2018-12-05T08:47:33.908Z,100556.06
2018-12-05T08:50:02.141Z,100554.67
2018-12-05T08:52:30.343Z,100545.81
2018-12-05T08:54:58.401Z,100550.81
2018-12-05T08:57:26.475Z,100551.59
2018-12-05T08:59:54.565Z,100544.81
2018-12-05T09:02:23.134Z,100546.78
2018-12-05T09:04:51.291Z,100541.60
2018-12-05T09:07:19.451Z,100536.47
2018-12-05T09:09:47.521Z,100525.64
2018-12-05T09:12:15.622Z,100525.67
2018-12-05T09:14:43.723Z,100518.95
2018-12-05T09:17:11.831Z,100519.22
2018-12-05T09:19:40.028Z,100510.50
2018-12-05T09:22:08.151Z,100509.39
2018-12-05T09:24:36.219Z,100509.05
2018-12-05T09:27:04.347Z,100507.81
2018-12-05T09:29:32.418Z,100504.09
2018-12-05T09:32:00.501Z,100506.45
2018-12-05T09:34:28.651Z,100505.17
2018-12-05T09:36:56.806Z,100502.16
2018-12-05T09:39:24.916Z,100502.26
2018-12-05T09:41:53.026Z,100492.59
2018-12-05T09:44:21.231Z,100492.80
2018-12-05T09:46:49.335Z,100501.84
2018-12-05T09:49:17.405Z,100501.99
2018-12-05T09:51:45.476Z,100505.70
2018-12-05T09:54:13.575Z,100506.73
2018-12-05T09:56:41.679Z,100504.26
2018-12-05T09:59:09.740Z,100504.54
2018-12-05T10:01:37.861Z,100507.20
2018-12-05T10:04:05.964Z,100497.44
2018-12-05T10:06:34.062Z,100498.58
2018-12-05T10:09:02.377Z,100505.30
2018-12-05T10:11:30.450Z,100508.63
2018-12-05T10:13:58.605Z,100500.75
2018-12-05T10:16:27.007Z,100486.97
2018-12-05T10:18:55.070Z,100483.59
2018-12-05T10:21:23.173Z,100473.19
2018-12-05T10:23:51.235Z,100471.40
2018-12-05T10:26:19.439Z,100459.19
2018-12-05T10:28:47.623Z,100454.34
2018-12-05T10:31:15.683Z,100447.43
2018-12-05T10:33:43.747Z,100443.55
2018-12-05T10:36:11.817Z,100438.03
2018-12-05T10:38:39.899Z,100437.06
2018-12-05T10:41:07.954Z,100442.42
2018-12-05T10:43:36.167Z,100435.88
2018-12-05T10:46:04.321Z,100431.15
2018-12-05T10:48:32.432Z,100430.95
2018-12-05T10:51:00.546Z,100427.44
2018-12-05T10:53:29.759Z,100422.70
2018-12-05T10:55:58.087Z,100422.47
2018-12-05T10:58:26.157Z,100403.21
2018-12-05T11:00:59.904Z,100400.29
2018-12-05T11:03:33.519Z,100394.34
2018-12-05T11:06:07.406Z,100385.51
2018-12-05T11:08:41.139Z,100380.98
2018-12-05T11:11:14.692Z,100374.01
2018-12-05T11:13:48.811Z,100364.69
2018-12-05T11:16:22.401Z,100365.85
2018-12-05T11:18:55.992Z,100362.16
2018-12-05T11:21:29.702Z,100353.52
2018-12-05T11:24:00.510Z,100351.05
2018-12-05T11:26:29.568Z,100348.87
2018-12-05T11:28:57.659Z,100343.62
2018-12-05T11:31:25.763Z,100343.56
2018-12-05T11:33:53.847Z,100343.33
2018-12-05T11:36:21.956Z,100339.03
2018-12-05T11:38:50.067Z,100334.05
2018-12-05T11:41:18.163Z,100330.81
2018-12-05T11:43:46.311Z,100326.98
2018-12-05T11:46:14.469Z,100329.70
2018-12-05T11:48:42.544Z,100331.70
2018-12-05T11:51:10.660Z,100330.23
2018-12-05T11:53:38.732Z,100324.80
2018-12-05T11:56:06.822Z,100314.02
2018-12-05T11:58:35.113Z,100312.03
2018-12-05T12:01:03.162Z,100305.75
2018-12-05T12:03:31.272Z,100308.02
2018-12-05T12:05:59.374Z,100308.05
2018-12-05T12:08:27.442Z,100312.11
2018-12-05T12:10:55.647Z,100308.10
2018-12-05T12:13:23.827Z,100300.09
2018-12-05T12:15:51.951Z,100297.69
2018-12-05T12:18:20.064Z,100290.59
2018-12-05T12:20:48.218Z,100285.45
2018-12-05T12:23:16.289Z,100284.97
2018-12-05T12:25:44.385Z,100287.34
2018-12-05T12:28:12.539Z,100284.58
2018-12-05T12:30:41.762Z,100277.69
2018-12-05T12:33:09.841Z,100272.20
2018-12-05T12:35:37.990Z,100269.41
2018-12-05T12:38:06.170Z,100266.14
2018-12-05T12:40:34.270Z,100262.42
2018-12-05T12:43:02.411Z,100261.23
2018-12-05T12:45:30.514Z,100258.58
2018-12-05T12:47:58.621Z,100255.66
2018-12-05T12:50:26.691Z,100257.05
2018-12-05T12:52:54.784Z,100249.14
2018-12-05T12:55:22.860Z,100246.92
2018-12-05T12:57:50.922Z,100239.14
2018-12-05T13:00:18.986Z,100237.91
2018-12-05T13:02:47.130Z,100243.41
2018-12-05T13:05:15.294Z,100238.36
2018-12-05T13:07:43.383Z,100232.50
2018-12-05T13:10:11.483Z,100229.00
2018-12-05T13:12:39.674Z,100226.20
2018-12-05T13:15:07.835Z,100215.52
2018-12-05T13:17:36.008Z,100215.47
2018-12-05T13:20:04.983Z,100211.66
2018-12-05T13:22:33.091Z,100197.45
2018-12-05T13:25:01.194Z,100195.81
2018-12-05T13:27:29.262Z,100193.95
2018-12-05T13:29:57.330Z,100185.70
2018-12-05T13:32:25.523Z,100185.64
2018-12-05T13:34:53.594Z,100184.02
2018-12-05T13:37:21.691Z,100178.83
2018-12-05T13:39:49.792Z,100173.66
2018-12-05T13:42:17.854Z,100174.41
2018-12-05T13:44:45.957Z,100174.56
2018-12-05T13:47:14.160Z,100172.81
2018-12-05T13:49:42.338Z,100169.52
2018-12-05T13:52:10.478Z,100169.62
2018-12-05T13:54:38.722Z,100163.09
2018-12-05T13:57:06.759Z,100166.76
2018-12-05T13:59:34.872Z,100156.87
2018-12-05T14:02:03.049Z,100159.63
2018-12-05T14:04:31.156Z,100158.66
2018-12-05T14:06:59.210Z,100152.70
2018-12-05T14:09:27.286Z,100155.13
2018-12-05T14:11:55.628Z,100148.05
2018-12-05T14:14:23.701Z,100138.89
2018-12-05T14:16:51.843Z,100136.77
2018-12-05T14:19:19.911Z,100130.94
2018-12-05T14:21:48.545Z,100130.72
2018-12-05T14:24:19.829Z,100128.08
2018-12-05T14:26:52.005Z,100120.95
2018-12-05T14:29:21.453Z,100126.72
2018-12-05T14:31:51.485Z,100121.97
2018-12-05T14:34:21.008Z,100117.52
2018-12-05T14:36:51.021Z,100120.10
2018-12-05T14:52:53.303Z,100103.92
2018-12-05T14:55:34.693Z,100089.22
2018-12-05T15:18:00.073Z,100039.66
2018-12-05T15:23:44.166Z,100019.34
2018-12-05T15:26:12.248Z,100007.38
2018-12-05T15:28:40.363Z,100012.91
2018-12-05T15:31:08.553Z,100013.05
2018-12-05T15:33:36.719Z,100015.89
2018-12-05T15:36:04.838Z,100007.84
2018-12-05T15:38:32.916Z,100003.39
2018-12-05T15:41:01.321Z,99992.58
2018-12-05T15:43:29.387Z,99992.05
2018-12-05T15:45:57.580Z,99992.04
2018-12-05T15:48:25.644Z,99989.66
2018-12-05T15:50:53.796Z,99986.76
2018-12-05T15:53:21.850Z,99982.12
2018-12-05T15:55:49.976Z,99973.80
2018-12-05T15:58:18.032Z,99970.77
2018-12-05T16:00:46.101Z,99964.63
2018-12-05T16:03:14.227Z,99960.14
2018-12-05T16:05:42.291Z,99955.49
2018-12-05T16:08:10.360Z,99964.00
2018-12-05T16:10:38.446Z,99955.89
2018-12-05T16:13:06.519Z,99953.42
2018-12-05T16:15:34.702Z,99947.39
2018-12-05T16:18:02.828Z,99946.12
2018-12-05T16:20:30.897Z,99946.02
2018-12-05T16:22:58.980Z,99944.89
2018-12-05T16:25:27.058Z,99950.59
2018-12-05T16:27:55.117Z,99945.52
2018-12-05T16:30:23.213Z,99937.48
2018-12-05T16:32:51.382Z,99936.14
2018-12-05T16:35:19.532Z,99930.48
2018-12-05T16:37:47.591Z,99928.74
2018-12-05T16:40:15.651Z,99923.13
2018-12-05T16:42:43.820Z,99929.55
2018-12-05T16:45:11.919Z,99926.39
2018-12-05T16:47:39.977Z,99920.25
2018-12-05T16:50:08.115Z,99924.22
2018-12-05T16:52:36.179Z,99913.28
2018-12-05T16:55:04.666Z,99915.22
2018-12-05T16:57:32.811Z,99910.83
2018-12-05T17:00:00.940Z,99910.00
2018-12-05T17:02:29.093Z,99909.27
2018-12-05T17:04:57.287Z,99904.40
2018-12-05T17:07:25.494Z,99901.58
2018-12-05T17:09:53.569Z,99893.25
2018-12-05T17:12:21.650Z,99887.49
2018-12-05T17:14:49.722Z,99880.36
2018-12-05T17:17:17.877Z,99867.19
2018-12-05T17:19:46.309Z,99856.77
2018-12-05T17:22:14.459Z,99849.74
2018-12-05T17:24:42.554Z,99850.45
2018-12-05T17:27:10.735Z,99849.25
2018-12-05T17:29:38.861Z,99842.50
2018-12-05T17:32:07.035Z,99847.23
2018-12-05T17:34:35.123Z,99843.09
2018-12-05T17:37:03.230Z,99850.03
2018-12-05T17:39:31.292Z,99843.67
2018-12-05T17:41:59.350Z,99833.23
2018-12-05T17:44:27.431Z,99837.80
2018-12-05T17:46:55.534Z,99836.66
2018-12-05T17:49:23.602Z,99833.27
2018-12-05T17:51:51.755Z,99823.92
2018-12-05T17:54:19.920Z,99815.80
2018-12-05T17:56:48.069Z,99811.08
2018-12-05T17:59:16.216Z,99807.44
2018-12-05T18:01:44.482Z,99812.05
2018-12-05T18:04:12.608Z,99809.69
2018-12-05T18:06:40.751Z,99803.86
2018-12-05T18:09:09.006Z,99798.95
2018-12-05T18:11:37.079Z,99796.14
2018-12-05T18:14:05.290Z,99794.16
2018-12-05T18:16:33.442Z,99789.81
2018-12-05T18:19:01.505Z,99777.13
2018-12-05T18:21:29.651Z,99783.70
2018-12-05T18:23:57.749Z,99773.28
2018-12-05T18:26:26.060Z,99771.13
2018-12-05T18:28:54.156Z,99762.61
2018-12-05T18:31:22.269Z,99755.59
2018-12-05T18:33:50.443Z,99738.58
2018-12-05T18:36:18.639Z,99730.40
2018-12-05T18:38:46.767Z,99725.69
2018-12-05T18:41:14.991Z,99714.02
2018-12-05T18:43:43.079Z,99718.99
2018-12-05T18:46:11.262Z,99720.42
2018-12-05T18:48:39.431Z,99726.58
2018-12-05T18:51:07.519Z,99717.45
2018-12-05T18:53:35.585Z,99714.41
2018-12-05T18:56:03.753Z,99710.02
2018-12-05T18:58:31.841Z,99712.59
2018-12-05T19:01:00.067Z,99706.36
2018-12-05T19:03:28.199Z,99707.71
2018-12-05T19:05:56.295Z,99700.52
2018-12-05T19:08:24.403Z,99709.63
2018-12-05T19:10:52.467Z,99705.50
2018-12-05T19:13:21.593Z,99697.48
2018-12-05T19:15:49.699Z,99696.84
2018-12-05T19:18:17.769Z,99691.09
2018-12-05T19:20:45.987Z,99703.97
2018-12-05T19:23:14.054Z,99694.95
2018-12-05T19:25:42.198Z,99709.59
2018-12-05T19:28:10.253Z,99705.98
2018-12-05T19:30:38.338Z,99703.77
2018-12-05T19:33:06.402Z,99711.26
2018-12-05T19:35:34.464Z,99704.45
2018-12-05T19:38:02.544Z,99697.22
2018-12-05T19:40:30.644Z,99689.63
2018-12-05T19:42:58.764Z,99687.77
2018-12-05T19:45:26.897Z,99686.53
2018-12-05T19:47:54.962Z,99679.64
2018-12-05T19:50:23.799Z,99677.31
2018-12-05T19:52:51.871Z,99673.61
2018-12-05T19:55:19.975Z,99669.45
2018-12-05T19:57:48.115Z,99667.95
2018-12-05T20:00:16.179Z,99658.64
2018-12-05T20:02:44.278Z,99656.78
2018-12-05T20:05:12.378Z,99651.59
2018-12-05T20:07:40.449Z,99654.23
2018-12-05T20:10:08.672Z,99653.43
2018-12-05T20:12:36.784Z,99660.67
2018-12-05T20:15:05.343Z,99661.05
2018-12-05T20:17:33.434Z,99669.77
2018-12-05T20:20:02.747Z,99681.86
2018-12-05T20:22:30.867Z,99673.19
2018-12-05T20:24:58.948Z,99672.66
2018-12-05T20:27:27.048Z,99668.63
2018-12-05T20:29:55.113Z,99671.38
2018-12-05T20:32:23.178Z,99670.83
2018-12-05T20:34:51.309Z,99671.98
2018-12-05T20:37:19.370Z,99664.78
2018-12-05T20:39:47.429Z,99658.52
2018-12-05T20:42:15.541Z,99648.22
2018-12-05T20:44:43.612Z,99650.14
2018-12-05T20:47:11.712Z,99648.39
2018-12-05T20:49:39.783Z,99650.09
2018-12-05T20:52:07.912Z,99641.83
2018-12-05T20:54:35.991Z,99645.44
2018-12-05T20:57:05.303Z,99649.67
2018-12-05T20:59:33.409Z,99650.02
2018-12-05T21:02:01.472Z,99640.14
2018-12-05T21:04:29.614Z,99637.64
2018-12-05T21:07:01.705Z,99645.67
2018-12-05T21:09:30.226Z,99647.31
2018-12-05T21:11:58.544Z,99649.56
2018-12-05T21:14:26.805Z,99649.84
2018-12-05T21:16:54.961Z,99642.10
2018-12-05T21:19:23.176Z,99642.84
2018-12-05T21:21:51.562Z,99639.48
2018-12-05T21:24:19.796Z,99634.92
2018-12-05T21:26:47.889Z,99624.15
2018-12-05T21:29:17.021Z,99611.46
2018-12-05T21:31:47.369Z,99614.23
2018-12-05T21:34:15.472Z,99608.70
2018-12-05T21:36:43.565Z,99605.03
2018-12-05T21:39:12.462Z,99600.47
2018-12-05T21:41:40.680Z,99597.07
2018-12-05T21:44:08.809Z,99601.80
2018-12-05T21:46:37.868Z,99607.94
2018-12-05T21:49:06.102Z,99622.52
2018-12-05T21:51:34.356Z,99612.84
2018-12-05T21:54:02.561Z,99598.86
2018-12-05T21:56:30.681Z,99595.69
2018-12-05T21:58:58.739Z,99584.60
2018-12-05T22:01:28.053Z,99579.41
2018-12-05T22:03:56.166Z,99585.63
2018-12-05T22:06:24.227Z,99579.04
2018-12-05T22:08:52.395Z,99575.48
2018-12-05T22:11:20.587Z,99562.27
2018-12-05T22:13:48.690Z,99557.33
2018-12-05T22:16:16.840Z,99554.23
2018-12-05T22:18:44.899Z,99564.39
2018-12-05T22:21:12.979Z,99559.16
2018-12-05T22:23:41.072Z,99555.07
2018-12-05T22:26:09.134Z,99558.38
2018-12-05T22:28:38.008Z,99557.20
2018-12-05T22:31:06.883Z,99563.49
2018-12-05T22:33:35.024Z,99560.19
2018-12-05T22:36:03.138Z,99565.16
2018-12-05T22:38:31.269Z,99556.69
2018-12-05T22:41:00.219Z,99559.86
2018-12-05T22:43:28.372Z,99556.96
2018-12-05T22:45:57.676Z,99553.59
2018-12-05T22:48:25.748Z,99555.12
2018-12-05T22:50:55.201Z,99549.44
2018-12-05T22:53:23.991Z,99552.28
2018-12-05T22:55:52.931Z,99550.09
2018-12-05T22:58:21.019Z,99551.97
2018-12-05T23:00:52.523Z,99544.31
2018-12-05T23:03:20.631Z,99546.41
2018-12-05T23:05:48.703Z,99554.09
2018-12-05T23:08:16.843Z,99558.84
2018-12-05T23:10:45.000Z,99560.22
2018-12-05T23:13:19.069Z,99555.23
2018-12-05T23:15:47.260Z,99561.16
2018-12-05T23:18:15.406Z,99554.77
2018-12-05T23:20:43.541Z,99554.86
2018-12-05T23:23:18.809Z,99560.41
2018-12-05T23:25:46.964Z,99561.94
2018-12-05T23:28:15.053Z,99548.50
2018-12-05T23:30:43.983Z,99558.47
2018-12-05T23:33:12.089Z,99558.49
2018-12-05T23:35:40.175Z,99555.29
2018-12-05T23:38:08.295Z,99550.59
2018-12-05T23:40:36.403Z,99557.24
2018-12-05T23:43:04.569Z,99559.47
2018-12-05T23:45:32.704Z,99551.71
2018-12-05T23:48:01.891Z,99561.22
2018-12-05T23:50:30.031Z,99526.47
2018-12-05T23:53:00.655Z,99546.87
2018-12-05T23:55:28.747Z,99546.41
2018-12-05T23:57:56.930Z,99550.91
